createdAt,value
2023-04-18T00:01:06.845Z,25.70
2023-04-18T00:03:34.044Z,16.70
2023-04-18T00:06:03.179Z,22.05
2023-04-18T00:08:50.589Z,21.05
2023-04-18T00:11:17.902Z,15.63
2023-04-18T00:13:47.697Z,14.90
2023-04-18T00:16:17.005Z,16.65
2023-04-18T00:18:44.268Z,18.02
2023-04-18T00:21:11.941Z,15.70
2023-04-18T00:23:42.504Z,20.38
2023-04-18T00:26:09.868Z,11.45
2023-04-18T00:28:37.090Z,15.65
2023-04-18T00:31:04.425Z,13.20
2023-04-18T00:33:34.090Z,17.30
2023-04-18T00:36:03.992Z,18.00
2023-04-18T00:38:31.413Z,18.23
2023-04-18T00:40:58.887Z,15.85
2023-04-18T00:43:26.368Z,16.90
2023-04-18T00:45:56.595Z,16.10
2023-04-18T00:48:24.822Z,13.10
2023-04-18T00:50:52.121Z,17.65
2023-04-18T00:53:19.501Z,13.38
2023-04-18T00:55:46.703Z,15.50
2023-04-18T00:58:14.527Z,11.25
2023-04-18T01:00:42.966Z,15.60
2023-04-18T01:03:11.145Z,11.70
2023-04-18T01:05:39.599Z,13.50
2023-04-18T01:08:07.297Z,12.18
2023-04-18T01:10:36.379Z,16.92
2023-04-18T01:13:12.143Z,14.93
2023-04-18T01:15:43.832Z,17.90
2023-04-18T01:18:12.253Z,17.17
2023-04-18T01:20:46.953Z,16.80
2023-04-18T01:23:18.873Z,13.07
2023-04-18T01:25:47.416Z,12.95
2023-04-18T01:28:16.067Z,15.68
2023-04-18T01:30:43.394Z,17.20
2023-04-18T01:33:10.885Z,15.82
2023-04-18T01:35:38.238Z,16.13
2023-04-18T01:38:05.587Z,15.02
2023-04-18T01:40:32.798Z,15.30
2023-04-18T01:43:00.125Z,16.80
2023-04-18T01:45:27.446Z,18.27
2023-04-18T01:47:54.876Z,12.82
2023-04-18T01:50:22.105Z,15.30
2023-04-18T01:52:49.316Z,14.65
2023-04-18T01:55:16.467Z,15.10
2023-04-18T01:57:43.709Z,13.13
2023-04-18T02:00:11.586Z,15.20
2023-04-18T02:02:39.001Z,15.80
2023-04-18T02:05:06.576Z,13.95
2023-04-18T02:07:33.689Z,16.88
2023-04-18T02:10:00.818Z,19.35
2023-04-18T02:12:28.062Z,13.27
2023-04-18T02:14:55.201Z,16.83
2023-04-18T02:17:23.833Z,18.08
2023-04-18T02:19:51.917Z,16.58
2023-04-18T02:22:19.383Z,12.52
2023-04-18T02:24:46.538Z,17.05
2023-04-18T02:27:13.794Z,17.85
2023-04-18T02:29:40.995Z,11.70
2023-04-18T02:32:08.528Z,11.38
2023-04-18T02:34:36.850Z,15.05
2023-04-18T02:37:04.997Z,13.80
2023-04-18T02:39:32.326Z,13.60
2023-04-18T02:41:59.554Z,13.63
2023-04-18T02:44:26.713Z,13.15
2023-04-18T02:46:53.824Z,13.35
2023-04-18T02:49:21.265Z,13.30
2023-04-18T02:51:48.674Z,13.73
2023-04-18T02:54:16.096Z,14.32
2023-04-18T02:56:43.431Z,11.32
2023-04-18T02:59:10.970Z,15.75
2023-04-18T03:01:38.409Z,11.68
2023-04-18T03:04:05.843Z,13.25
2023-04-18T03:06:33.297Z,13.38
2023-04-18T03:09:00.662Z,7.45
2023-04-18T03:11:27.809Z,10.25
2023-04-18T03:13:55.395Z,11.43
2023-04-18T03:16:23.339Z,9.95
2023-04-18T03:18:50.456Z,14.00
2023-04-18T03:21:17.676Z,12.85
2023-04-18T03:23:45.031Z,18.67
2023-04-18T03:26:14.216Z,26.75
2023-04-18T03:28:41.475Z,25.92
2023-04-18T03:31:08.669Z,24.30
2023-04-18T03:33:35.766Z,19.52
2023-04-18T03:36:03.436Z,15.13
2023-04-18T03:38:31.641Z,12.38
2023-04-18T03:40:58.801Z,9.80
2023-04-18T03:43:25.941Z,12.98
2023-04-18T03:45:53.157Z,12.95
2023-04-18T03:48:20.312Z,16.83
2023-04-18T03:50:47.379Z,24.98
2023-04-18T03:53:14.851Z,21.73
2023-04-18T03:55:42.305Z,20.55
2023-04-18T03:58:09.858Z,18.38
2023-04-18T04:00:37.065Z,19.38
2023-04-18T04:03:04.330Z,14.55
2023-04-18T04:05:31.775Z,20.77
2023-04-18T04:07:58.871Z,23.98
2023-04-18T04:10:26.108Z,14.57
2023-04-18T04:12:53.279Z,22.48
2023-04-18T04:15:20.725Z,21.67
2023-04-18T04:17:47.874Z,18.40
2023-04-18T04:20:15.670Z,16.52
2023-04-18T04:22:43.043Z,17.73
2023-04-18T04:25:10.935Z,18.63
2023-04-18T04:27:39.603Z,18.67
2023-04-18T04:30:07.681Z,16.95
2023-04-18T04:32:35.831Z,14.65
2023-04-18T04:35:03.329Z,13.65
2023-04-18T04:37:30.450Z,10.55
2023-04-18T04:39:57.720Z,14.23
2023-04-18T04:42:25.628Z,15.98
2023-04-18T04:44:53.974Z,12.90
2023-04-18T04:47:21.203Z,13.27
2023-04-18T04:49:48.401Z,17.02
2023-04-18T04:52:15.629Z,14.65
2023-04-18T04:54:43.677Z,14.32
2023-04-18T04:57:11.120Z,11.20
2023-04-18T04:59:41.344Z,9.18
2023-04-18T05:02:12.018Z,15.93
2023-04-18T05:04:39.561Z,13.13
2023-04-18T05:07:09.585Z,11.48
2023-04-18T05:09:36.990Z,13.55
2023-04-18T05:12:04.636Z,16.55
2023-04-18T05:14:32.128Z,25.83
2023-04-18T05:17:10.913Z,16.08
2023-04-18T05:19:40.619Z,18.88
2023-04-18T05:22:07.854Z,21.27
2023-04-18T05:24:35.029Z,17.48
2023-04-18T05:27:11.307Z,16.45
2023-04-18T05:29:38.945Z,17.15
2023-04-18T05:32:07.078Z,12.80
2023-04-18T05:34:38.592Z,11.43
2023-04-18T05:37:06.135Z,15.48
2023-04-18T05:39:33.434Z,12.57
2023-04-18T05:42:01.146Z,17.92
2023-04-18T05:44:29.191Z,11.98
2023-04-18T05:46:56.576Z,19.73
2023-04-18T05:49:24.007Z,21.38
2023-04-18T05:51:53.318Z,16.75
2023-04-18T05:54:25.402Z,17.42
2023-04-18T05:56:52.610Z,22.88
2023-04-18T05:59:21.255Z,18.45
2023-04-18T06:01:56.859Z,26.23
2023-04-18T06:04:24.320Z,16.02
2023-04-18T06:06:54.907Z,20.05
2023-04-18T06:09:25.761Z,16.17
2023-04-18T06:11:52.888Z,17.50
2023-04-18T06:14:20.105Z,13.52
2023-04-18T06:16:47.320Z,15.00
2023-04-18T06:19:14.478Z,22.00
2023-04-18T06:21:43.639Z,20.13
2023-04-18T06:24:16.718Z,23.10
2023-04-18T06:26:44.593Z,18.00
2023-04-18T06:29:12.283Z,27.95
2023-04-18T06:31:39.465Z,25.63
2023-04-18T06:34:07.148Z,24.73
2023-04-18T06:36:34.259Z,25.65
2023-04-18T06:39:01.481Z,29.98
2023-04-18T06:41:29.173Z,17.83
2023-04-18T06:44:03.343Z,25.92
2023-04-18T06:46:43.155Z,26.35
2023-04-18T06:49:10.448Z,25.92
2023-04-18T06:51:37.577Z,29.48
2023-04-18T06:54:04.808Z,27.48
2023-04-18T06:56:33.053Z,31.92
2023-04-18T06:59:01.956Z,33.17
2023-04-18T07:01:32.528Z,31.15
2023-04-18T07:03:59.853Z,35.08
2023-04-18T07:06:27.110Z,27.85
2023-04-18T07:08:56.370Z,29.65
2023-04-18T07:11:23.911Z,27.38
2023-04-18T07:13:51.245Z,28.83
2023-04-18T07:16:18.843Z,31.65
2023-04-18T07:18:46.268Z,35.30
2023-04-18T07:21:13.321Z,31.60
2023-04-18T07:23:40.425Z,30.48
2023-04-18T07:26:07.692Z,25.48
2023-04-18T07:28:37.893Z,31.80
2023-04-18T07:31:05.142Z,22.02
2023-04-18T07:33:34.060Z,25.38
2023-04-18T07:36:04.385Z,19.40
2023-04-18T07:38:31.666Z,21.35
2023-04-18T07:41:00.281Z,20.35
2023-04-18T07:43:27.625Z,15.52
2023-04-18T07:45:55.181Z,21.15
2023-04-18T07:48:22.861Z,32.45
2023-04-18T07:50:50.084Z,22.63
2023-04-18T07:53:17.626Z,15.88
2023-04-18T07:55:45.999Z,20.10
2023-04-18T07:58:13.710Z,31.50
2023-04-18T08:00:43.288Z,13.35
2023-04-18T08:03:12.540Z,15.35
2023-04-18T08:05:41.695Z,20.60
2023-04-18T08:08:11.076Z,14.02
2023-04-18T08:10:38.434Z,15.85
2023-04-18T08:13:05.634Z,16.40
2023-04-18T08:15:33.157Z,16.20
2023-04-18T08:18:01.431Z,13.73
2023-04-18T08:20:28.599Z,20.60
2023-04-18T08:25:25.747Z,23.20
2023-04-18T08:27:52.891Z,20.08
2023-04-18T08:30:20.061Z,27.52
2023-04-18T08:32:47.318Z,17.45
2023-04-18T08:35:14.457Z,21.23
2023-04-18T08:37:41.655Z,23.67
2023-04-18T08:40:09.112Z,23.55
2023-04-18T08:42:38.783Z,26.58
2023-04-18T08:45:07.339Z,27.60
2023-04-18T08:47:35.955Z,25.98
2023-04-18T08:50:03.773Z,34.55
2023-04-18T08:52:32.831Z,29.65
2023-04-18T08:55:00.167Z,21.27
2023-04-18T08:57:27.659Z,31.35
2023-04-18T08:59:55.710Z,18.55
2023-04-18T09:02:39.235Z,27.27
2023-04-18T09:05:20.535Z,16.80
2023-04-18T09:07:49.994Z,27.75
2023-04-18T09:10:29.136Z,29.20
2023-04-18T09:12:57.939Z,22.23
2023-04-18T09:15:29.760Z,20.70
2023-04-18T09:17:59.661Z,23.25
2023-04-18T09:20:36.000Z,25.13
2023-04-18T09:23:05.834Z,17.88
2023-04-18T09:25:40.817Z,22.58
2023-04-18T09:28:30.157Z,22.13
2023-04-18T09:30:59.701Z,24.38
2023-04-18T09:33:28.910Z,17.23
2023-04-18T09:35:57.635Z,34.38
2023-04-18T09:38:42.932Z,19.02
2023-04-18T09:41:11.753Z,15.65
2023-04-18T09:43:39.631Z,19.67
2023-04-18T09:46:08.481Z,15.45
2023-04-18T09:48:36.126Z,25.85
2023-04-18T09:51:10.166Z,19.15
2023-04-18T09:53:42.196Z,24.08
2023-04-18T09:56:15.892Z,24.73
2023-04-18T09:58:47.853Z,20.15
2023-04-18T10:01:15.389Z,20.40
2023-04-18T10:03:48.601Z,13.88
2023-04-18T10:06:17.332Z,23.27
2023-04-18T10:08:46.212Z,33.08
2023-04-18T10:11:13.801Z,47.47
2023-04-18T10:13:43.612Z,44.78
2023-04-18T10:16:11.891Z,45.58
2023-04-18T10:18:39.608Z,32.17
2023-04-18T10:21:09.312Z,22.80
2023-04-18T10:23:37.408Z,23.30
2023-04-18T10:26:05.824Z,21.65
2023-04-18T10:28:57.028Z,20.92
2023-04-18T10:31:27.833Z,16.95
2023-04-18T10:36:29.420Z,22.25
2023-04-18T10:39:03.617Z,23.70
2023-04-18T10:41:32.572Z,24.63
2023-04-18T10:44:19.664Z,24.25
2023-04-18T10:46:52.952Z,28.33
2023-04-18T10:49:31.190Z,25.27
2023-04-18T10:52:01.880Z,27.60
2023-04-18T10:54:47.495Z,21.55
2023-04-18T10:57:15.459Z,15.35
2023-04-18T10:59:44.855Z,17.75
2023-04-18T11:02:30.505Z,18.02
2023-04-18T11:05:07.643Z,26.70
2023-04-18T11:07:46.701Z,35.28
2023-04-18T11:10:16.620Z,21.80
2023-04-18T11:12:43.742Z,28.08
2023-04-18T11:15:13.772Z,21.40
2023-04-18T11:17:41.458Z,21.55
2023-04-18T11:20:11.632Z,21.67
2023-04-18T11:22:46.097Z,21.67
2023-04-18T11:25:13.593Z,19.40
2023-04-18T11:27:49.478Z,23.73
2023-04-18T11:30:16.773Z,30.42
2023-04-18T11:32:44.511Z,35.95
2023-04-18T11:35:13.484Z,23.55
2023-04-18T11:37:41.984Z,25.83
2023-04-18T11:40:10.378Z,26.05
2023-04-18T11:42:39.427Z,19.17
2023-04-18T11:45:14.375Z,22.67
2023-04-18T11:47:43.426Z,28.58
2023-04-18T11:50:12.998Z,24.50
2023-04-18T11:52:41.850Z,19.95
2023-04-18T11:55:13.943Z,19.98
2023-04-18T11:57:42.245Z,27.05
2023-04-18T12:00:12.582Z,22.92
2023-04-18T12:02:45.880Z,27.35
2023-04-18T12:05:24.586Z,26.10
2023-04-18T12:07:52.096Z,32.05
2023-04-18T12:10:30.056Z,25.02
2023-04-18T12:13:00.892Z,27.60
2023-04-18T12:15:29.693Z,32.13
2023-04-18T12:18:05.164Z,24.90
2023-04-18T12:20:39.642Z,26.63
2023-04-18T12:23:07.149Z,30.50
2023-04-18T12:25:35.325Z,21.38
2023-04-18T12:28:16.156Z,19.05
2023-04-18T12:30:43.282Z,20.58
2023-04-18T12:33:10.753Z,27.40
2023-04-18T12:35:38.543Z,20.00
2023-04-18T12:38:06.278Z,22.83
2023-04-18T12:40:33.946Z,20.17
2023-04-18T12:43:03.411Z,27.25
2023-04-18T12:45:31.302Z,19.98
2023-04-18T12:47:59.072Z,22.40
2023-04-18T12:50:27.261Z,21.80
2023-04-18T12:52:59.496Z,23.20
2023-04-18T12:55:28.672Z,20.92
2023-04-18T12:57:56.929Z,20.65
2023-04-18T13:00:29.424Z,15.75
2023-04-18T13:02:57.109Z,27.08
2023-04-18T13:05:28.064Z,25.15
2023-04-18T13:10:27.710Z,23.20
2023-04-18T13:12:54.902Z,28.08
2023-04-18T13:15:28.321Z,25.50
2023-04-18T13:17:58.632Z,19.95
2023-04-18T13:20:25.959Z,18.98
2023-04-18T13:22:53.184Z,21.48
2023-04-18T13:25:20.641Z,21.15
2023-04-18T13:27:48.155Z,22.73
2023-04-18T13:30:15.436Z,27.15
2023-04-18T13:32:44.174Z,26.35
2023-04-18T13:35:11.805Z,17.88
2023-04-18T13:37:39.380Z,25.13
2023-04-18T13:40:07.272Z,23.25
2023-04-18T13:42:36.257Z,21.42
2023-04-18T13:45:04.023Z,26.95
2023-04-18T13:47:31.419Z,23.88
2023-04-18T13:49:58.856Z,23.25
2023-04-18T13:52:26.559Z,21.58
2023-04-18T13:54:53.976Z,19.13
2023-04-18T13:57:22.167Z,22.98
2023-04-18T13:59:49.286Z,23.58
2023-04-18T14:02:16.815Z,26.23
2023-04-18T14:04:44.154Z,25.90
2023-04-18T14:07:11.412Z,19.83
2023-04-18T14:09:38.632Z,32.60
2023-04-18T14:12:06.280Z,23.27
2023-04-18T14:14:33.684Z,25.50
2023-04-18T14:17:00.944Z,20.33
2023-04-18T14:19:28.122Z,23.80
2023-04-18T14:21:55.273Z,24.20
2023-04-18T14:24:22.518Z,25.85
2023-04-18T14:26:49.660Z,28.02
2023-04-18T14:29:17.061Z,18.70
2023-04-18T14:31:44.439Z,26.00
2023-04-18T14:34:11.828Z,24.05
2023-04-18T14:36:38.882Z,21.02
2023-04-18T14:39:06.104Z,25.63
2023-04-18T14:41:33.390Z,22.58
2023-04-18T14:44:00.592Z,21.40
2023-04-18T14:46:28.660Z,26.38
2023-04-18T14:48:56.043Z,24.10
2023-04-18T14:51:24.227Z,25.25
2023-04-18T14:53:51.687Z,24.10
2023-04-18T14:56:21.358Z,26.27
2023-04-18T14:58:48.766Z,25.17
2023-04-18T15:01:17.788Z,23.25
2023-04-18T15:03:45.733Z,32.55
2023-04-18T15:06:13.025Z,24.42
2023-04-18T15:08:40.430Z,28.77
2023-04-18T15:11:08.706Z,27.15
2023-04-18T15:13:37.609Z,17.63
2023-04-18T15:16:05.032Z,24.45
2023-04-18T15:18:32.129Z,25.83
2023-04-18T15:21:02.793Z,24.52
2023-04-18T15:23:29.990Z,28.60
2023-04-18T15:25:57.130Z,18.23
2023-04-18T15:28:24.397Z,18.27
2023-04-18T15:30:51.560Z,21.25
2023-04-18T15:33:20.675Z,26.58
2023-04-18T15:35:48.535Z,30.48
2023-04-18T15:38:15.685Z,26.08
2023-04-18T15:40:43.852Z,18.83
2023-04-18T15:43:11.114Z,23.52
2023-04-18T15:45:38.394Z,26.08
2023-04-18T15:48:05.737Z,18.65
2023-04-18T15:50:34.401Z,23.67
2023-04-18T15:53:02.852Z,27.38
2023-04-18T15:55:30.409Z,22.20
2023-04-18T15:57:58.075Z,25.65
2023-04-18T16:00:25.405Z,22.00
2023-04-18T16:02:52.651Z,24.33
2023-04-18T16:05:20.023Z,29.23
2023-04-18T16:07:47.276Z,21.27
2023-04-18T16:10:15.515Z,22.95
2023-04-18T16:12:42.900Z,22.45
2023-04-18T16:15:10.795Z,22.65
2023-04-18T16:17:38.198Z,20.88
2023-04-18T16:20:06.639Z,22.13
2023-04-18T16:22:33.828Z,22.38
2023-04-18T16:25:01.205Z,21.13
2023-04-18T16:27:28.786Z,28.23
2023-04-18T16:29:56.256Z,17.48
2023-04-18T16:32:23.390Z,25.05
2023-04-18T16:34:50.930Z,20.58
2023-04-18T16:37:18.157Z,23.27
2023-04-18T16:39:45.394Z,18.30
2023-04-18T16:42:15.300Z,21.05
2023-04-18T16:44:42.991Z,21.30
2023-04-18T16:47:10.272Z,22.17
2023-04-18T16:49:37.876Z,18.40
2023-04-18T16:52:05.100Z,20.73
2023-04-18T16:54:32.299Z,26.80
2023-04-18T16:56:59.558Z,19.92
2023-04-18T16:59:26.604Z,21.77
2023-04-18T17:01:53.939Z,21.58
2023-04-18T17:04:22.070Z,26.02
2023-04-18T17:06:51.443Z,30.05
2023-04-18T17:09:20.643Z,20.73
2023-04-18T17:11:47.887Z,24.20
2023-04-18T17:14:16.802Z,31.75
2023-04-18T17:16:44.041Z,27.20
2023-04-18T17:19:11.759Z,24.35
2023-04-18T17:21:39.088Z,27.10
2023-04-18T17:24:07.710Z,24.00
2023-04-18T17:26:36.466Z,25.20
2023-04-18T17:29:06.611Z,30.80
2023-04-18T17:31:34.542Z,24.02
2023-04-18T17:34:01.929Z,24.45
2023-04-18T17:36:29.064Z,25.73
2023-04-18T17:38:56.752Z,20.88
2023-04-18T17:41:23.920Z,19.75
2023-04-18T17:43:51.314Z,24.88
2023-04-18T17:46:18.630Z,20.88
2023-04-18T17:48:45.917Z,27.48
2023-04-18T17:51:13.049Z,24.65
2023-04-18T17:53:40.279Z,25.52
2023-04-18T17:56:07.484Z,29.70
2023-04-18T17:58:34.700Z,22.30
2023-04-18T18:01:02.031Z,22.52
2023-04-18T18:03:29.518Z,21.08
2023-04-18T18:05:59.214Z,26.48
2023-04-18T18:08:26.707Z,23.65
2023-04-18T18:10:53.876Z,21.58
2023-04-18T18:13:20.992Z,21.27
2023-04-18T18:15:48.223Z,22.95
2023-04-18T18:18:15.551Z,24.63
2023-04-18T18:20:43.565Z,20.60
2023-04-18T18:23:10.738Z,20.33
2023-04-18T18:25:38.063Z,22.08
2023-04-18T18:28:05.348Z,23.50
2023-04-18T18:30:32.513Z,21.55
2023-04-18T18:33:02.092Z,19.13
2023-04-18T18:35:29.658Z,23.63
2023-04-18T18:37:56.857Z,19.75
2023-04-18T18:40:24.287Z,22.00
2023-04-18T18:42:54.159Z,23.15
2023-04-18T18:45:21.743Z,24.15
2023-04-18T18:47:49.288Z,21.98
2023-04-18T18:50:16.594Z,23.73
2023-04-18T18:52:43.749Z,18.98
2023-04-18T18:55:11.518Z,26.08
2023-04-18T18:57:38.875Z,27.38
2023-04-18T19:00:13.728Z,23.65
2023-04-18T19:02:41.256Z,20.02
2023-04-18T19:05:09.307Z,25.25
2023-04-18T19:07:36.471Z,21.10
2023-04-18T19:10:04.033Z,24.08
2023-04-18T19:12:31.387Z,29.85
2023-04-18T19:14:58.682Z,37.90
2023-04-18T19:17:26.021Z,22.73
2023-04-18T19:19:53.951Z,24.60
2023-04-18T19:22:21.122Z,25.13
2023-04-18T19:24:48.552Z,28.38
2023-04-18T19:27:15.861Z,26.73
2023-04-18T19:29:43.089Z,27.17
2023-04-18T19:32:10.535Z,25.85
2023-04-18T19:34:38.737Z,24.35
2023-04-18T19:37:06.103Z,16.90
2023-04-18T19:39:33.315Z,21.20
2023-04-18T19:42:00.942Z,23.52
2023-04-18T19:44:28.114Z,25.67
2023-04-18T19:46:55.347Z,17.15
2023-04-18T19:49:22.765Z,16.02
2023-04-18T19:51:51.729Z,18.25
2023-04-18T19:54:21.830Z,18.55
2023-04-18T19:56:49.679Z,21.00
2023-04-18T19:59:16.915Z,18.17
2023-04-18T20:01:44.205Z,27.63
2023-04-18T20:04:11.549Z,17.55
2023-04-18T20:06:38.961Z,22.90
2023-04-18T20:09:06.243Z,21.65
2023-04-18T20:11:33.707Z,21.75
2023-04-18T20:14:00.959Z,29.33
2023-04-18T20:16:28.162Z,20.33
2023-04-18T20:18:55.501Z,19.50
2023-04-18T20:21:22.738Z,19.58
2023-04-18T20:23:49.926Z,23.30
2023-04-18T20:26:17.042Z,15.13
2023-04-18T20:28:44.213Z,21.33
2023-04-18T20:31:12.694Z,17.13
2023-04-18T20:33:39.978Z,21.38
2023-04-18T20:36:07.869Z,16.20
2023-04-18T20:38:35.272Z,22.52
2023-04-18T20:41:02.430Z,13.80
2023-04-18T20:43:29.618Z,16.42
2023-04-18T20:45:58.078Z,24.25
2023-04-18T20:48:25.414Z,16.42
2023-04-18T20:50:52.693Z,15.68
2023-04-18T20:53:21.277Z,16.92
2023-04-18T20:55:49.409Z,14.65
2023-04-18T20:58:17.009Z,15.82
2023-04-18T21:00:45.352Z,19.85
2023-04-18T21:03:19.039Z,18.17
2023-04-18T21:08:14.814Z,18.83
2023-04-18T21:10:42.323Z,17.13
2023-04-18T21:13:09.664Z,15.02
2023-04-18T21:15:36.895Z,11.48
2023-04-18T21:18:04.187Z,19.92
2023-04-18T21:20:31.436Z,24.23
2023-04-18T21:22:58.987Z,12.45
2023-04-18T21:25:26.382Z,14.52
2023-04-18T21:27:53.552Z,14.68
2023-04-18T21:30:22.192Z,17.52
2023-04-18T21:32:51.824Z,16.25
2023-04-18T21:35:20.271Z,12.93
2023-04-18T21:37:48.623Z,17.35
2023-04-18T21:40:16.345Z,14.55
2023-04-18T21:43:07.450Z,13.00
2023-04-18T21:45:34.816Z,17.50
2023-04-18T21:48:02.100Z,14.23
2023-04-18T21:50:29.534Z,24.63
2023-04-18T21:52:56.685Z,20.00
2023-04-18T21:55:23.861Z,18.88
2023-04-18T21:57:51.519Z,15.80
2023-04-18T22:00:19.370Z,21.83
2023-04-18T22:02:47.498Z,16.52
2023-04-18T22:05:16.478Z,15.63
2023-04-18T22:07:56.966Z,17.13
2023-04-18T22:10:25.609Z,17.63
2023-04-18T22:12:56.318Z,16.27
2023-04-18T22:15:24.868Z,20.77
2023-04-18T22:17:52.164Z,15.70
2023-04-18T22:20:19.417Z,12.55
2023-04-18T22:22:46.612Z,17.83
2023-04-18T22:25:16.110Z,22.02
2023-04-18T22:27:44.519Z,14.82
2023-04-18T22:30:12.875Z,17.83
2023-04-18T22:32:40.369Z,11.88
2023-04-18T22:35:08.329Z,15.65
2023-04-18T22:37:35.471Z,15.95
2023-04-18T22:40:04.655Z,15.02
2023-04-18T22:42:33.769Z,13.18
2023-04-18T22:45:01.027Z,15.05
2023-04-18T22:47:28.225Z,15.30
2023-04-18T22:49:55.334Z,9.68
2023-04-18T22:52:25.188Z,19.27
2023-04-18T22:54:52.886Z,15.13
2023-04-18T22:57:20.172Z,13.82
2023-04-18T22:59:47.580Z,16.33
2023-04-18T23:02:14.886Z,12.82
2023-04-18T23:04:46.417Z,17.33
2023-04-18T23:07:13.784Z,17.77
2023-04-18T23:09:40.960Z,16.63
2023-04-18T23:12:08.333Z,15.65
2023-04-18T23:14:35.727Z,17.52
2023-04-18T23:17:03.248Z,15.35
2023-04-18T23:19:30.437Z,18.65
2023-04-18T23:21:57.580Z,12.15
2023-04-18T23:24:24.776Z,14.55
2023-04-18T23:26:52.132Z,12.75
2023-04-18T23:29:19.482Z,17.45
2023-04-18T23:31:46.734Z,15.05
2023-04-18T23:34:14.172Z,15.20
2023-04-18T23:36:41.489Z,14.93
2023-04-18T23:39:09.008Z,18.55
2023-04-18T23:41:36.141Z,12.68
2023-04-18T23:44:03.710Z,15.82
2023-04-18T23:46:31.346Z,14.25
2023-04-18T23:48:58.528Z,15.20
2023-04-18T23:51:26.584Z,14.85
2023-04-18T23:53:53.772Z,9.90
2023-04-18T23:56:21.521Z,10.13
2023-04-18T23:58:48.699Z,12.95
